Time;durP1;ratioP1;P1;durP2;ratioP2;P2;SDS_P1;SDS_P2;PMS_P1;PMS_P2;Temp;Humidity;BMP_temperature;BMP_pressure;BME280_temperature;BME280_humidity;BME280_pressure;Samples;Min_cycle;Max_cycle;Signal;HPM_P1;HPM_P2
2023/09/29 00:02:10;;;;;;;7.87;6.43;;;17.70;99.90;;;;;;5054546;28;20665;-58
2023/09/29 00:04:37;;;;;;;8.73;5.70;;;17.70;99.90;;;;;;5067980;28;20202;-56
2023/09/29 00:07:07;;;;;;;9.30;5.97;;;17.70;99.90;;;;;;5065567;28;20205;-58
2023/09/29 00:09:34;;;;;;;6.77;5.43;;;17.70;99.90;;;;;;5054192;28;20256;-50
2023/09/29 00:12:01;;;;;;;9.97;6.43;;;17.80;99.90;;;;;;5033732;28;20209;-58
2023/09/29 00:14:28;;;;;;;6.77;5.80;;;17.80;99.90;;;;;;5055439;28;20649;-51
2023/09/29 00:16:55;;;;;;;9.57;5.73;;;17.80;99.90;;;;;;5059483;28;20323;-56
2023/09/29 00:19:22;;;;;;;8.30;6.17;;;17.70;99.90;;;;;;5043247;28;20199;-58
2023/09/29 00:21:49;;;;;;;9.63;5.97;;;17.80;99.90;;;;;;5057966;28;20244;-58
2023/09/29 00:24:17;;;;;;;6.63;5.43;;;17.80;99.90;;;;;;5061913;28;20200;-56
2023/09/29 00:26:44;;;;;;;8.53;5.90;;;17.80;99.90;;;;;;5057928;28;20219;-58
2023/09/29 00:29:11;;;;;;;6.70;6.10;;;17.80;99.90;;;;;;5023328;28;20687;-58
2023/09/29 00:31:38;;;;;;;7.60;5.43;;;17.80;99.90;;;;;;5052121;28;20210;-50
2023/09/29 00:34:06;;;;;;;8.87;5.47;;;17.70;99.90;;;;;;5054032;28;20285;-56
2023/09/29 00:36:33;;;;;;;10.47;5.77;;;17.70;99.90;;;;;;5062387;28;20767;-53
2023/09/29 00:39:00;;;;;;;8.27;5.87;;;17.70;99.90;;;;;;5062280;28;20198;-57
2023/09/29 00:41:29;;;;;;;13.37;6.93;;;17.70;99.90;;;;;;5067038;28;20250;-50
2023/09/29 00:43:56;;;;;;;8.47;5.87;;;17.70;99.90;;;;;;5040247;28;20229;-58
2023/09/29 00:46:25;;;;;;;5.93;5.40;;;17.70;99.90;;;;;;5065295;28;20196;-57
2023/09/29 00:48:52;;;;;;;7.73;5.90;;;17.70;99.90;;;;;;5053033;28;20214;-56
2023/09/29 00:51:20;;;;;;;7.50;5.57;;;17.70;99.90;;;;;;5058937;28;20206;-56
2023/09/29 00:53:48;;;;;;;7.43;5.33;;;17.80;99.90;;;;;;5061063;28;20790;-54
2023/09/29 00:56:16;;;;;;;8.30;5.90;;;17.70;99.90;;;;;;5066272;28;20206;-53
2023/09/29 00:58:44;;;;;;;9.77;5.90;;;17.80;99.90;;;;;;5034217;28;20218;-48
2023/09/29 01:01:13;;;;;;;6.63;5.83;;;17.80;99.90;;;;;;5054876;28;20653;-52
2023/09/29 01:03:40;;;;;;;11.37;6.13;;;17.80;99.90;;;;;;5054450;28;20203;-46
2023/09/29 01:06:08;;;;;;;7.83;5.70;;;17.80;99.90;;;;;;5061963;28;20190;-55
2023/09/29 01:08:35;;;;;;;5.57;4.77;;;17.80;99.90;;;;;;5066222;28;21503;-49
2023/09/29 01:11:04;;;;;;;5.23;4.73;;;17.80;99.90;;;;;;5063696;28;20190;-55
2023/09/29 01:13:31;;;;;;;6.70;5.20;;;17.80;99.90;;;;;;5069421;28;20222;-48
2023/09/29 01:16:00;;;;;;;6.53;5.67;;;17.80;99.90;;;;;;5037690;28;20219;-51
2023/09/29 01:18:28;;;;;;;8.00;5.30;;;17.80;99.90;;;;;;5050144;28;20215;-47
2023/09/29 01:20:55;;;;;;;9.67;5.63;;;17.80;99.90;;;;;;5052771;28;20700;-51
2023/09/29 01:23:23;;;;;;;6.83;4.60;;;17.80;99.90;;;;;;5065874;28;20558;-51
2023/09/29 01:25:52;;;;;;;11.00;5.90;;;17.80;99.90;;;;;;5064989;28;20659;-58
2023/09/29 01:28:19;;;;;;;6.37;5.60;;;17.80;99.90;;;;;;5066847;28;20206;-50
2023/09/29 01:30:46;;;;;;;5.50;4.83;;;17.80;99.90;;;;;;5033406;28;20210;-57
2023/09/29 01:33:13;;;;;;;8.80;5.60;;;17.80;99.90;;;;;;5065050;28;20672;-51
2023/09/29 01:35:43;;;;;;;7.17;4.90;;;17.80;99.90;;;;;;5053283;28;20312;-55
2023/09/29 01:38:10;;;;;;;5.77;5.20;;;17.90;99.90;;;;;;5065359;28;20272;-56
2023/09/29 01:40:37;;;;;;;8.93;5.17;;;17.90;99.90;;;;;;5061050;28;20187;-57
2023/09/29 01:43:05;;;;;;;6.27;5.20;;;17.80;99.90;;;;;;5064429;28;20268;-52
2023/09/29 01:45:33;;;;;;;7.80;5.70;;;17.80;99.90;;;;;;5061185;28;20187;-54
2023/09/29 01:48:01;;;;;;;5.67;5.13;;;17.70;99.90;;;;;;5037278;28;20230;-58
2023/09/29 01:50:28;;;;;;;7.53;5.20;;;17.80;99.90;;;;;;5066424;28;20250;-49
2023/09/29 01:52:54;;;;;;;8.07;5.27;;;17.70;99.90;;;;;;5057418;28;20202;-55
2023/09/29 01:55:23;;;;;;;7.70;5.43;;;17.70;99.90;;;;;;5065213;28;20203;-50
2023/09/29 01:57:54;;;;;;;6.40;5.67;;;17.70;99.90;;;;;;5066573;28;20591;-52
2023/09/29 02:00:25;;;;;;;6.83;5.10;;;17.70;99.90;;;;;;5062810;28;20277;-54
2023/09/29 02:02:53;;;;;;;9.10;5.47;;;17.70;99.90;;;;;;5035118;28;20579;-55
2023/09/29 02:05:20;;;;;;;7.27;5.57;;;17.70;99.90;;;;;;5065620;28;20198;-45
2023/09/29 02:07:48;;;;;;;6.13;4.87;;;17.70;99.90;;;;;;5053131;28;20253;-54
2023/09/29 02:10:19;;;;;;;5.57;5.07;;;17.70;99.90;;;;;;5062677;28;20202;-49
2023/09/29 02:12:54;;;;;;;6.90;5.80;;;17.70;99.90;;;;;;5061274;28;20183;-56
2023/09/29 02:15:22;;;;;;;7.87;5.20;;;17.70;99.90;;;;;;5070379;28;20233;-47
2023/09/29 02:17:49;;;;;;;6.00;5.00;;;17.70;99.90;;;;;;5067848;28;21123;-53
2023/09/29 02:20:17;;;;;;;7.20;4.90;;;17.60;99.90;;;;;;5036195;28;20202;-51
2023/09/29 02:22:44;;;;;;;6.13;5.23;;;17.70;99.90;;;;;;5062333;28;20207;-58
2023/09/29 02:25:14;;;;;;;5.93;5.33;;;17.70;99.90;;;;;;5070301;28;20195;-54
2023/09/29 02:27:41;;;;;;;5.57;5.03;;;17.70;99.90;;;;;;5068528;28;20214;-54
2023/09/29 02:30:10;;;;;;;9.30;4.90;;;17.60;99.90;;;;;;5068553;28;20194;-58
2023/09/29 02:32:40;;;;;;;5.83;5.20;;;17.60;99.90;;;;;;5066072;28;20842;-53
2023/09/29 02:35:09;;;;;;;7.47;5.40;;;17.60;99.90;;;;;;5021246;28;20309;-55
2023/09/29 02:37:37;;;;;;;7.47;5.13;;;17.70;99.90;;;;;;5065286;28;20222;-52
2023/09/29 02:40:05;;;;;;;9.47;5.67;;;17.60;99.90;;;;;;5053749;28;20198;-51
2023/09/29 02:42:32;;;;;;;5.60;5.10;;;17.60;99.90;;;;;;5065761;28;20248;-52
2023/09/29 02:44:59;;;;;;;6.13;5.03;;;17.60;99.90;;;;;;5061627;28;20739;-44
2023/09/29 02:47:26;;;;;;;6.70;5.57;;;17.60;99.90;;;;;;5066553;28;20210;-56
2023/09/29 02:49:55;;;;;;;7.10;5.53;;;17.60;99.90;;;;;;5039169;28;20195;-47
2023/09/29 02:52:22;;;;;;;9.27;5.03;;;17.60;99.90;;;;;;5050789;28;20217;-49
2023/09/29 02:54:49;;;;;;;6.00;5.40;;;17.60;99.90;;;;;;5053982;28;20195;-48
2023/09/29 02:57:16;;;;;;;6.37;4.80;;;17.50;99.90;;;;;;5061026;28;20203;-54
2023/09/29 02:59:44;;;;;;;7.70;5.83;;;17.60;99.90;;;;;;5062083;28;20194;-49
2023/09/29 03:02:11;;;;;;;7.27;6.23;;;17.50;99.90;;;;;;5060663;28;20194;-56
2023/09/29 03:04:39;;;;;;;6.10;5.50;;;17.50;99.90;;;;;;5065093;28;20210;-54
2023/09/29 03:07:09;;;;;;;6.90;5.43;;;17.50;99.90;;;;;;5034294;28;20210;-54
2023/09/29 03:09:36;;;;;;;6.07;5.47;;;17.50;99.90;;;;;;5054541;28;20214;-55
2023/09/29 03:12:03;;;;;;;7.20;5.33;;;17.50;99.90;;;;;;5061008;28;20198;-57
2023/09/29 03:14:30;;;;;;;6.10;5.50;;;17.50;99.90;;;;;;5064242;28;20282;-54
2023/09/29 03:16:58;;;;;;;6.23;4.83;;;17.40;99.90;;;;;;5058560;28;20215;-47
2023/09/29 03:19:27;;;;;;;5.87;5.23;;;17.40;99.90;;;;;;5066813;28;20277;-56
2023/09/29 03:21:54;;;;;;;8.60;5.90;;;17.40;99.90;;;;;;5024598;28;20625;-49
2023/09/29 03:24:22;;;;;;;6.70;5.60;;;17.40;99.90;;;;;;5055018;28;20310;-57
2023/09/29 03:26:50;;;;;;;6.53;5.90;;;17.40;99.90;;;;;;5058666;28;20218;-51
2023/09/29 03:29:18;;;;;;;6.17;5.37;;;17.40;99.90;;;;;;5042722;28;20252;-56
2023/09/29 03:31:46;;;;;;;6.70;6.07;;;17.40;99.90;;;;;;5060762;28;20681;-48
2023/09/29 03:34:14;;;;;;;6.30;5.70;;;17.30;99.90;;;;;;5066034;28;20186;-56
2023/09/29 03:36:42;;;;;;;6.20;5.30;;;17.30;99.90;;;;;;5056627;28;20229;-51
2023/09/29 03:39:09;;;;;;;6.87;6.00;;;17.30;99.90;;;;;;5039848;28;20264;-48
2023/09/29 03:41:38;;;;;;;8.00;6.47;;;17.30;99.90;;;;;;5052184;28;20206;-56
2023/09/29 03:44:05;;;;;;;12.40;6.80;;;17.20;99.90;;;;;;5059834;28;20225;-57
2023/09/29 03:46:31;;;;;;;7.83;6.30;;;17.20;99.90;;;;;;5065100;28;20187;-54
2023/09/29 03:48:58;;;;;;;6.60;6.00;;;17.30;99.90;;;;;;5060966;28;20190;-55
2023/09/29 03:51:26;;;;;;;12.40;6.67;;;17.20;99.90;;;;;;5067483;28;20189;-57
2023/09/29 03:53:54;;;;;;;7.77;6.53;;;17.20;99.90;;;;;;5031314;28;20226;-48
2023/09/29 03:56:22;;;;;;;8.93;7.07;;;17.10;99.90;;;;;;5055399;28;20214;-57
2023/09/29 03:58:51;;;;;;;7.53;6.73;;;17.10;99.90;;;;;;5061789;28;20619;-50
2023/09/29 04:01:18;;;;;;;7.97;7.07;;;17.10;99.90;;;;;;5049229;28;20229;-50
2023/09/29 04:03:45;;;;;;;7.97;7.27;;;17.10;99.90;;;;;;5059907;28;20194;-53
2023/09/29 04:06:12;;;;;;;7.80;6.43;;;17.10;99.90;;;;;;5062777;28;20267;-53
2023/09/29 04:08:39;;;;;;;8.03;6.70;;;17.10;99.90;;;;;;5021865;28;20271;-58
2023/09/29 04:11:07;;;;;;;7.80;7.07;;;17.10;99.90;;;;;;5063502;28;20199;-58
2023/09/29 04:13:34;;;;;;;8.77;7.60;;;17.10;99.90;;;;;;5048932;28;20221;-55
2023/09/29 04:16:05;;;;;;;8.50;7.80;;;17.10;99.90;;;;;;5051095;28;20549;-54
2023/09/29 04:18:32;;;;;;;9.03;7.43;;;17.10;99.90;;;;;;5058180;28;20209;-56
2023/09/29 04:21:01;;;;;;;8.43;7.27;;;17.00;99.90;;;;;;5055293;28;20258;-56
2023/09/29 04:23:28;;;;;;;11.63;8.50;;;17.00;99.90;;;;;;5053366;28;20201;-48
2023/09/29 04:25:55;;;;;;;10.00;7.97;;;17.00;99.90;;;;;;5038198;28;20260;-56
2023/09/29 04:28:22;;;;;;;8.47;7.57;;;17.00;99.90;;;;;;5051160;28;20227;-53
2023/09/29 04:30:48;;;;;;;9.87;8.43;;;17.00;99.90;;;;;;5065891;28;20214;-56
2023/09/29 04:33:18;;;;;;;9.47;8.50;;;17.00;99.90;;;;;;5051036;28;20206;-47
2023/09/29 04:35:45;;;;;;;9.17;7.63;;;17.00;99.90;;;;;;5058131;28;20282;-56
2023/09/29 04:38:12;;;;;;;9.13;8.17;;;17.00;99.90;;;;;;5046206;28;20254;-48
2023/09/29 04:40:39;;;;;;;8.90;8.07;;;17.00;99.90;;;;;;5022961;28;20284;-55
2023/09/29 04:43:06;;;;;;;13.33;8.37;;;17.00;99.90;;;;;;5048013;28;20203;-49
2023/09/29 04:45:34;;;;;;;10.47;8.40;;;17.00;99.90;;;;;;5051814;28;20244;-56
2023/09/29 04:48:01;;;;;;;8.73;7.93;;;17.00;99.90;;;;;;5051606;28;20696;-51
2023/09/29 04:50:29;;;;;;;9.77;7.67;;;17.00;99.90;;;;;;5055434;28;20260;-58
2023/09/29 04:52:56;;;;;;;12.10;8.60;;;17.00;99.90;;;;;;5038061;28;20589;-48
2023/09/29 04:55:23;;;;;;;8.93;7.70;;;17.00;99.90;;;;;;5020314;28;20929;-57
2023/09/29 04:57:52;;;;;;;10.00;8.87;;;17.00;99.90;;;;;;5046932;28;20222;-57
2023/09/29 05:00:19;;;;;;;11.23;8.30;;;17.00;99.90;;;;;;5051100;28;20213;-50
2023/09/29 05:02:46;;;;;;;10.53;8.33;;;17.00;99.90;;;;;;5060193;28;20198;-54
2023/09/29 05:05:13;;;;;;;8.97;7.97;;;17.00;99.90;;;;;;5066677;28;20282;-50
2023/09/29 05:07:43;;;;;;;9.43;8.47;;;17.00;99.90;;;;;;5057095;28;20301;-56
2023/09/29 05:10:13;;;;;;;10.20;7.83;;;17.00;99.90;;;;;;5038469;28;20203;-50
2023/09/29 05:12:41;;;;;;;9.57;8.63;;;17.00;99.90;;;;;;5036054;28;23133;-54
2023/09/29 05:15:09;;;;;;;9.23;8.33;;;17.00;99.90;;;;;;5052225;28;20194;-51
2023/09/29 05:17:36;;;;;;;11.70;9.47;;;17.00;99.90;;;;;;5060026;28;20210;-51
2023/09/29 05:20:05;;;;;;;9.47;8.27;;;17.00;99.90;;;;;;5067509;28;20194;-57
2023/09/29 05:22:31;;;;;;;9.50;7.80;;;16.90;99.90;;;;;;5057841;28;20219;-55
2023/09/29 05:25:00;;;;;;;9.63;8.50;;;16.90;99.90;;;;;;5044158;28;20655;-57
2023/09/29 05:27:29;;;;;;;9.13;8.27;;;16.90;99.90;;;;;;5022988;28;20218;-53
2023/09/29 05:29:56;;;;;;;9.33;8.33;;;16.90;99.90;;;;;;5037946;28;20194;-48
2023/09/29 05:32:23;;;;;;;12.33;8.47;;;16.90;99.90;;;;;;5052195;28;20198;-48
2023/09/29 05:34:50;;;;;;;9.93;8.40;;;16.90;99.90;;;;;;5051004;28;20253;-52
2023/09/29 05:37:17;;;;;;;10.90;8.67;;;16.90;99.90;;;;;;5054446;28;20233;-53
2023/09/29 05:39:44;;;;;;;10.47;8.57;;;16.90;99.90;;;;;;5042204;28;20195;-54
2023/09/29 05:42:12;;;;;;;10.57;8.77;;;16.90;99.90;;;;;;5023205;28;20301;-50
2023/09/29 05:44:39;;;;;;;9.33;8.53;;;16.80;99.90;;;;;;5045960;28;20211;-56
2023/09/29 05:47:06;;;;;;;9.67;8.67;;;16.80;99.90;;;;;;5046620;28;20312;-53
2023/09/29 05:49:32;;;;;;;10.30;9.20;;;16.80;99.90;;;;;;5056062;28;20187;-52
2023/09/29 05:51:59;;;;;;;10.73;8.87;;;16.90;99.90;;;;;;5060045;28;20210;-57
2023/09/29 05:54:26;;;;;;;13.70;9.00;;;16.80;99.90;;;;;;5049782;28;20191;-47
2023/09/29 05:56:53;;;;;;;10.13;9.10;;;16.80;99.90;;;;;;5055722;28;20228;-53
2023/09/29 05:59:21;;;;;;;11.40;9.00;;;16.80;99.90;;;;;;5025317;28;20206;-46
2023/09/29 06:01:48;;;;;;;13.20;8.83;;;16.80;99.90;;;;;;5038493;28;20203;-48
2023/09/29 06:04:15;;;;;;;16.07;9.93;;;16.80;99.90;;;;;;5059184;28;20354;-55
2023/09/29 06:06:43;;;;;;;11.40;9.10;;;16.90;99.90;;;;;;5061405;28;20317;-53
2023/09/29 06:09:10;;;;;;;11.33;8.87;;;16.90;99.90;;;;;;5029695;28;20227;-47
2023/09/29 06:11:37;;;;;;;13.67;9.57;;;16.90;99.90;;;;;;5042970;28;20190;-52
2023/09/29 06:14:03;;;;;;;11.20;10.07;;;16.90;99.90;;;;;;5029579;28;20283;-48
2023/09/29 06:16:32;;;;;;;18.20;10.40;;;16.90;99.90;;;;;;5054305;28;20214;-53
2023/09/29 06:18:59;;;;;;;15.43;10.50;;;16.90;99.90;;;;;;5053383;28;20221;-51
2023/09/29 06:21:25;;;;;;;13.03;10.07;;;17.00;99.90;;;;;;5061807;28;20189;-56
2023/09/29 06:23:53;;;;;;;14.00;10.17;;;17.00;99.90;;;;;;5066566;28;20194;-48
2023/09/29 06:26:19;;;;;;;12.30;9.63;;;17.00;99.90;;;;;;5054700;28;20199;-56
2023/09/29 06:28:46;;;;;;;12.00;10.20;;;17.10;99.90;;;;;;5023520;28;20595;-53
2023/09/29 06:31:13;;;;;;;10.33;9.27;;;17.00;99.90;;;;;;5049805;28;20206;-51
2023/09/29 06:33:42;;;;;;;12.27;10.43;;;17.10;99.90;;;;;;5041303;28;20542;-55
2023/09/29 06:36:08;;;;;;;11.20;10.10;;;17.10;99.90;;;;;;5043224;28;20256;-51
2023/09/29 06:38:35;;;;;;;11.37;9.00;;;17.10;99.90;;;;;;5056871;28;20222;-52
2023/09/29 06:41:03;;;;;;;13.13;9.73;;;17.20;99.90;;;;;;5039047;28;20683;-51
2023/09/29 06:43:31;;;;;;;11.83;10.13;;;17.10;99.90;;;;;;5030958;28;20244;-45
2023/09/29 06:46:00;;;;;;;12.00;9.83;;;17.20;99.90;;;;;;5049520;28;20205;-54
2023/09/29 06:48:27;;;;;;;10.27;9.37;;;17.20;99.90;;;;;;5045943;28;20677;-45
2023/09/29 06:50:59;;;;;;;12.37;9.37;;;17.20;99.90;;;;;;5062806;28;20196;-53
2023/09/29 06:53:32;;;;;;;11.30;9.53;;;17.30;99.90;;;;;;5064820;28;20198;-49
2023/09/29 06:56:06;;;;;;;11.10;10.07;;;17.30;99.90;;;;;;5048536;28;20198;-49
2023/09/29 06:58:36;;;;;;;12.57;10.17;;;17.30;99.90;;;;;;5025759;28;20828;-48
2023/09/29 07:01:14;;;;;;;13.23;10.30;;;17.30;99.90;;;;;;5056572;28;20230;-55
2023/09/29 07:03:42;;;;;;;10.60;9.60;;;17.30;99.90;;;;;;5041188;28;20287;-48
2023/09/29 07:06:23;;;;;;;11.73;10.03;;;17.40;99.90;;;;;;5057426;28;20312;-50
2023/09/29 07:08:52;;;;;;;14.23;9.53;;;17.40;99.90;;;;;;5064914;28;20186;-51
2023/09/29 07:11:23;;;;;;;12.17;10.10;;;17.50;99.90;;;;;;5056869;28;20210;-48
2023/09/29 07:13:53;;;;;;;10.07;8.53;;;17.50;99.90;;;;;;5044285;28;21255;-53
2023/09/29 07:16:24;;;;;;;10.63;9.47;;;17.50;99.90;;;;;;5028108;28;20599;-51
2023/09/29 07:18:54;;;;;;;9.87;8.87;;;17.60;99.90;;;;;;5039928;28;21079;-54
2023/09/29 07:21:23;;;;;;;13.43;9.10;;;17.70;99.90;;;;;;5061785;28;20572;-54
2023/09/29 07:23:56;;;;;;;10.47;8.70;;;17.60;99.90;;;;;;5060089;28;20201;-55
2023/09/29 07:26:24;;;;;;;10.83;9.10;;;17.70;99.90;;;;;;5066923;28;20244;-49
2023/09/29 07:28:53;;;;;;;12.97;9.70;;;17.70;99.90;;;;;;5046322;28;20289;-55
2023/09/29 07:31:21;;;;;;;10.90;9.77;;;17.80;99.90;;;;;;5019752;28;20210;-48
2023/09/29 07:33:57;;;;;;;14.23;9.67;;;17.80;99.90;;;;;;5039317;28;20309;-46
2023/09/29 07:36:29;;;;;;;13.27;9.33;;;17.80;99.90;;;;;;5066438;28;20194;-55
2023/09/29 07:38:57;;;;;;;12.00;8.50;;;17.80;99.90;;;;;;5064807;28;20222;-48
2023/09/29 07:41:25;;;;;;;12.50;9.33;;;17.80;99.90;;;;;;5063475;28;20213;-54
2023/09/29 07:43:53;;;;;;;10.37;8.40;;;17.90;99.90;;;;;;5045404;28;20194;-45
2023/09/29 07:46:21;;;;;;;12.60;9.40;;;17.90;99.90;;;;;;5057078;28;20190;-46
2023/09/29 07:48:59;;;;;;;12.27;8.77;;;17.90;99.90;;;;;;5023301;28;20395;-45
2023/09/29 07:51:32;;;;;;;12.47;8.53;;;18.00;99.90;;;;;;5044605;28;20285;-52
2023/09/29 07:54:01;;;;;;;10.53;8.67;;;18.00;99.90;;;;;;5064193;28;20665;-48
2023/09/29 07:56:29;;;;;;;9.60;8.60;;;18.10;99.90;;;;;;5063745;28;20676;-51
2023/09/29 07:58:58;;;;;;;10.30;8.90;;;18.10;99.90;;;;;;5048734;28;20276;-46
2023/09/29 08:01:26;;;;;;;12.33;8.67;;;18.10;99.90;;;;;;5044253;28;20203;-53
2023/09/29 08:03:54;;;;;;;15.20;9.23;;;18.20;99.90;;;;;;5023684;28;20269;-48
2023/09/29 08:06:22;;;;;;;17.60;9.00;;;18.20;99.90;;;;;;5053992;28;20209;-48
2023/09/29 08:08:52;;;;;;;11.00;9.33;;;18.20;99.90;;;;;;5058543;28;20828;-52
2023/09/29 08:11:20;;;;;;;9.90;8.80;;;18.30;99.90;;;;;;5061015;28;20760;-47
2023/09/29 08:13:52;;;;;;;12.50;8.37;;;18.30;99.90;;;;;;5045758;28;20821;-50
2023/09/29 08:16:19;;;;;;;11.90;8.50;;;18.30;99.90;;;;;;5052094;28;20210;-50
2023/09/29 08:18:53;;;;;;;10.63;8.47;;;18.30;99.90;;;;;;5013884;28;21431;-52
2023/09/29 08:21:21;;;;;;;16.60;8.60;;;18.40;99.90;;;;;;5053547;28;20279;-50
2023/09/29 08:23:51;;;;;;;10.23;7.87;;;18.40;99.90;;;;;;5051782;28;20187;-47
2023/09/29 08:26:18;;;;;;;13.40;9.07;;;18.50;99.90;;;;;;5059832;28;20248;-49
2023/09/29 08:28:54;;;;;;;14.70;8.53;;;18.50;99.90;;;;;;5049042;28;20207;-53
2023/09/29 08:31:21;;;;;;;12.93;7.80;;;18.50;99.90;;;;;;5053022;28;20544;-48
2023/09/29 08:33:49;;;;;;;12.33;8.53;;;18.60;99.90;;;;;;5022890;28;20194;-49
2023/09/29 08:36:17;;;;;;;13.43;7.97;;;18.60;99.90;;;;;;5042486;28;20195;-45
2023/09/29 08:38:45;;;;;;;10.97;8.30;;;18.60;99.90;;;;;;5058139;28;20224;-51
2023/09/29 08:41:18;;;;;;;9.97;7.43;;;18.70;99.90;;;;;;5066930;28;20190;-51
2023/09/29 08:43:48;;;;;;;11.10;7.90;;;18.80;99.90;;;;;;5051809;28;20273;-47
2023/09/29 08:46:20;;;;;;;11.37;7.80;;;18.80;99.90;;;;;;5051559;28;20557;-48
2023/09/29 08:48:52;;;;;;;10.73;7.87;;;18.90;99.90;;;;;;5018590;28;20276;-46
2023/09/29 08:51:21;;;;;;;11.47;7.87;;;19.00;99.90;;;;;;5054583;28;20206;-48
2023/09/29 08:53:59;;;;;;;11.13;7.83;;;19.10;99.90;;;;;;5057948;28;20852;-48
2023/09/29 08:56:31;;;;;;;11.13;7.73;;;19.10;99.90;;;;;;5046661;28;20205;-50
2023/09/29 08:59:05;;;;;;;10.87;7.67;;;19.20;99.90;;;;;;5048169;28;20210;-47
2023/09/29 09:01:33;;;;;;;8.27;7.10;;;19.20;99.90;;;;;;5055918;28;20186;-53
2023/09/29 09:04:00;;;;;;;10.53;7.70;;;19.20;99.90;;;;;;5011429;28;20256;-50
2023/09/29 09:06:41;;;;;;;10.37;7.47;;;19.10;99.90;;;;;;5047447;28;20673;-50
2023/09/29 09:09:18;;;;;;;8.17;7.37;;;19.10;99.90;;;;;;5044142;28;20182;-53
2023/09/29 09:11:48;;;;;;;11.27;7.93;;;19.10;99.90;;;;;;5061016;28;20201;-50
2023/09/29 09:14:15;;;;;;;8.40;6.90;;;19.10;99.90;;;;;;5048925;28;20202;-48
2023/09/29 09:16:45;;;;;;;11.00;7.57;;;19.10;99.90;;;;;;5056535;28;20231;-45
2023/09/29 09:19:16;;;;;;;7.73;6.50;;;19.10;99.90;;;;;;5007981;28;20356;-47
2023/09/29 09:21:48;;;;;;;9.50;6.67;;;19.10;99.90;;;;;;5048970;28;20199;-48
2023/09/29 09:24:23;;;;;;;11.37;7.60;;;19.10;99.90;;;;;;5062828;28;20194;-50
2023/09/29 09:27:03;;;;;;;9.07;7.33;;;19.10;99.90;;;;;;5057860;28;20911;-46
2023/09/29 09:29:33;;;;;;;11.00;8.43;;;19.20;99.90;;;;;;5055371;28;20653;-50
2023/09/29 09:32:05;;;;;;;8.03;7.33;;;19.10;99.90;;;;;;5043067;28;20297;-50
2023/09/29 09:34:37;;;;;;;9.77;7.57;;;19.10;99.90;;;;;;5020019;28;24967;-47
2023/09/29 09:37:11;;;;;;;9.43;7.17;;;19.10;99.90;;;;;;5047655;28;20226;-47
2023/09/29 09:39:42;;;;;;;9.13;6.73;;;19.20;99.90;;;;;;5058444;28;22203;-47
2023/09/29 09:42:13;;;;;;;8.83;7.23;;;19.20;99.90;;;;;;5063732;28;20198;-51
2023/09/29 09:44:47;;;;;;;10.50;7.07;;;19.20;99.90;;;;;;5056183;28;20228;-46
2023/09/29 09:47:16;;;;;;;11.97;6.90;;;19.20;99.90;;;;;;5055943;28;20919;-49
2023/09/29 09:49:48;;;;;;;8.17;6.53;;;19.20;99.90;;;;;;5066236;28;20289;-47
2023/09/29 09:52:24;;;;;;;9.10;6.57;;;19.20;99.90;;;;;;5017412;28;20703;-48
2023/09/29 09:54:53;;;;;;;8.73;6.27;;;19.20;99.90;;;;;;5047314;28;20253;-49
2023/09/29 09:57:25;;;;;;;6.90;6.03;;;19.20;99.90;;;;;;5065311;28;20215;-48
2023/09/29 09:59:55;;;;;;;9.20;6.20;;;19.30;99.90;;;;;;5055997;28;20213;-49
2023/09/29 10:02:23;;;;;;;9.23;6.57;;;19.30;99.90;;;;;;5063525;28;20874;-48
2023/09/29 10:05:00;;;;;;;7.60;5.47;;;19.30;99.90;;;;;;5058868;28;20586;-49
2023/09/29 10:07:27;;;;;;;8.13;6.03;;;19.30;99.90;;;;;;5019185;28;20237;-53
2023/09/29 10:09:54;;;;;;;5.77;5.23;;;19.30;99.90;;;;;;5057899;28;20194;-47
2023/09/29 10:12:27;;;;;;;5.70;5.13;;;19.40;99.90;;;;;;5059572;28;20197;-47
2023/09/29 10:14:54;;;;;;;8.40;6.13;;;19.40;99.90;;;;;;5066966;28;20200;-48
2023/09/29 10:17:21;;;;;;;8.33;5.60;;;19.50;99.90;;;;;;5042536;28;20221;-50
2023/09/29 10:19:51;;;;;;;6.53;5.40;;;19.50;99.90;;;;;;5061237;28;21967;-50
2023/09/29 10:22:24;;;;;;;7.72;4.50;;;19.60;99.90;;;;;;5030638;28;20714;-48
2023/09/29 10:24:56;;;;;;;8.90;4.60;;;19.60;99.90;;;;;;5059762;28;20199;-51
2023/09/29 10:27:33;;;;;;;5.90;5.27;;;19.70;99.90;;;;;;5049003;28;20219;-50
2023/09/29 10:30:15;;;;;;;6.45;5.18;;;19.80;99.90;;;;;;5062893;28;20198;-53
2023/09/29 10:32:45;;;;;;;5.87;4.63;;;19.80;99.90;;;;;;5052585;28;20202;-49
2023/09/29 10:35:19;;;;;;;7.47;5.28;;;19.80;99.90;;;;;;5062213;28;20194;-49
2023/09/29 10:37:54;;;;;;;5.40;4.80;;;19.90;99.90;;;;;;5030422;28;20221;-52
2023/09/29 10:40:22;;;;;;;7.70;5.03;;;20.00;99.90;;;;;;5057093;28;21540;-48
2023/09/29 10:42:54;;;;;;;5.78;5.18;;;20.10;99.90;;;;;;5046098;28;20289;-49
2023/09/29 10:45:31;;;;;;;5.68;4.82;;;20.20;99.90;;;;;;5055698;28;20253;-48
2023/09/29 10:48:02;;;;;;;5.25;4.82;;;20.30;99.90;;;;;;5050804;28;20222;-48
2023/09/29 10:50:29;;;;;;;6.32;5.15;;;20.50;99.90;;;;;;5058610;28;20190;-48
2023/09/29 10:52:57;;;;;;;4.60;4.15;;;20.70;99.90;;;;;;5033479;28;20745;-52
2023/09/29 10:55:24;;;;;;;6.95;4.13;;;20.80;99.90;;;;;;5057948;28;20203;-50
2023/09/29 10:58:07;;;;;;;6.25;3.67;;;20.80;99.90;;;;;;5053684;28;20237;-54
2023/09/29 11:00:42;;;;;;;8.13;3.83;;;21.00;99.90;;;;;;5059694;28;20198;-53
2023/09/29 11:03:11;;;;;;;4.00;3.65;;;21.00;99.90;;;;;;5055202;28;20202;-51
2023/09/29 11:05:48;;;;;;;6.65;3.50;;;21.20;99.90;;;;;;5061616;28;20301;-48
2023/09/29 11:08:19;;;;;;;4.05;2.83;;;21.20;99.90;;;;;;5036962;28;20225;-50
2023/09/29 11:10:57;;;;;;;3.45;2.85;;;21.30;99.90;;;;;;5060936;28;20230;-51
2023/09/29 11:13:27;;;;;;;4.35;2.78;;;21.30;99.90;;;;;;5052435;28;20225;-52
2023/09/29 11:15:55;;;;;;;6.20;3.10;;;21.40;99.90;;;;;;5058880;28;20208;-54
2023/09/29 11:18:29;;;;;;;7.38;3.35;;;21.40;99.90;;;;;;5044697;28;20285;-53
2023/09/29 11:20:57;;;;;;;5.53;3.25;;;21.30;99.90;;;;;;5062368;28;20196;-50
2023/09/29 11:23:24;;;;;;;3.65;2.85;;;21.30;99.90;;;;;;5064180;28;20983;-54
2023/09/29 11:25:54;;;;;;;4.72;3.00;;;21.30;99.90;;;;;;5041408;28;20206;-55
2023/09/29 11:28:21;;;;;;;3.50;3.20;;;21.40;99.90;;;;;;5063753;28;20223;-56
2023/09/29 11:30:50;;;;;;;4.30;2.70;;;21.50;99.90;;;;;;5055529;28;20221;-56
2023/09/29 11:33:17;;;;;;;4.05;2.97;;;21.60;99.90;;;;;;5060712;28;20648;-48
2023/09/29 11:35:46;;;;;;;6.30;2.75;;;21.80;99.90;;;;;;5056261;28;20252;-49
2023/09/29 11:38:19;;;;;;;6.32;3.25;;;21.80;99.90;;;;;;5071691;28;20880;-52
2023/09/29 11:40:46;;;;;;;3.22;2.88;;;21.90;99.90;;;;;;5022156;28;20341;-46
2023/09/29 11:43:13;;;;;;;7.38;3.03;;;21.90;99.90;;;;;;5053150;28;20244;-50
2023/09/29 11:45:40;;;;;;;6.22;3.05;;;22.00;99.90;;;;;;5047819;28;20199;-52
2023/09/29 11:48:09;;;;;;;4.25;3.25;;;22.00;99.90;;;;;;5059418;28;20305;-54
2023/09/29 11:50:37;;;;;;;3.10;2.50;;;22.00;99.90;;;;;;5050606;28;20245;-53
2023/09/29 11:53:06;;;;;;;4.18;3.13;;;22.10;99.90;;;;;;5061393;28;20206;-53
2023/09/29 11:55:36;;;;;;;3.45;2.92;;;22.20;99.90;;;;;;5023098;28;20641;-53
2023/09/29 11:58:03;;;;;;;4.60;2.65;;;22.30;99.90;;;;;;5072012;28;20236;-56
2023/09/29 12:00:30;;;;;;;5.53;2.88;;;22.30;99.90;;;;;;5051370;28;20722;-46
2023/09/29 12:02:58;;;;;;;3.10;2.75;;;22.40;99.90;;;;;;5062575;28;20279;-51
2023/09/29 12:05:27;;;;;;;3.03;2.53;;;22.50;99.90;;;;;;5054522;28;20899;-51
2023/09/29 12:07:54;;;;;;;4.57;2.90;;;22.50;99.90;;;;;;5067724;28;20279;-52
2023/09/29 12:10:21;;;;;;;5.60;2.60;;;22.60;99.90;;;;;;5060579;28;20248;-45
2023/09/29 12:12:48;;;;;;;3.47;2.53;;;22.70;99.90;;;;;;5032650;28;20206;-53
2023/09/29 12:15:17;;;;;;;5.18;2.58;;;22.90;99.90;;;;;;5067186;28;20252;-47
2023/09/29 12:17:45;;;;;;;3.53;3.03;;;23.00;99.90;;;;;;5054805;28;20234;-54
2023/09/29 12:20:14;;;;;;;3.58;2.67;;;23.00;99.90;;;;;;5056227;28;20317;-50
2023/09/29 12:22:45;;;;;;;3.60;2.60;;;23.00;99.90;;;;;;5064301;28;20286;-51
2023/09/29 12:25:13;;;;;;;3.50;2.83;;;23.10;99.90;;;;;;5062853;28;20289;-50
2023/09/29 12:27:40;;;;;;;6.40;2.92;;;23.10;99.90;;;;;;5034702;28;22675;-49
2023/09/29 12:30:08;;;;;;;2.22;2.03;;;23.00;99.90;;;;;;5067733;28;20214;-48
2023/09/29 12:32:36;;;;;;;3.00;2.70;;;23.00;99.90;;;;;;5050709;28;20248;-55
2023/09/29 12:35:04;;;;;;;4.57;2.85;;;22.90;99.90;;;;;;5059426;28;20215;-56
2023/09/29 12:37:31;;;;;;;4.57;2.50;;;22.80;99.90;;;;;;5048269;28;20222;-57
2023/09/29 12:39:59;;;;;;;3.08;2.60;;;22.80;99.90;;;;;;5061884;28;20287;-48
2023/09/29 12:42:26;;;;;;;4.40;2.95;;;22.80;99.90;;;;;;5065719;28;20187;-55
2023/09/29 12:44:53;;;;;;;2.58;2.38;;;22.80;99.90;;;;;;5037497;28;20293;-48
2023/09/29 12:47:20;;;;;;;7.10;2.88;;;22.80;99.90;;;;;;5065562;28;20949;-54
2023/09/29 12:49:47;;;;;;;2.60;2.40;;;22.80;99.90;;;;;;5073227;28;20687;-56
2023/09/29 12:52:15;;;;;;;6.28;3.13;;;22.80;99.90;;;;;;5064722;28;20198;-54